This is the latest recevied weather packets stored in our database for station/object W0WC. If no packets are shown the sender has not sent any weather packets the latest 10 day(s).
| Time | Temp. | Humidity | Pressure | Rain* | Wind** | Luminosity | Snow |
|---|---|---|---|---|---|---|---|
| 1777985518 | 13.33° C | 89% | 1007.3 hPa | 0 mm | - | 29 W/m² | - |
| 1777984607 | 13.33° C | 89% | 1006.9 hPa | 0 mm | - | 32 W/m² | - |
| 1777984304 | 13.33° C | 89% | 1007.1 hPa | 0 mm | - | 27 W/m² | - |
| 1777984000 | 13.33° C | 89% | 1007.1 hPa | 0 mm | - | 16 W/m² | - |
| 1777983698 | 13.89° C | 89% | 1007.1 hPa | 0 mm | - | 19 W/m² | - |
| 1777982787 | 13.89° C | 89% | 1006.5 hPa | 0 mm | - | 30 W/m² | - |
| 1777982178 | 14.44° C | 89% | 1006.1 hPa | 0 mm | - | 35 W/m² | - |
| 1777980965 | 15° C | 90% | 1006.5 hPa | 0 mm | - | 10 W/m² | - |
| 1777980662 | 15° C | 91% | 1006.1 hPa | 0 mm | - | 7 W/m² | - |
| 1777980358 | 15° C | 91% | 1006 hPa | 0 mm | - | 5 W/m² | - |
| 1777980057 | 15° C | 91% | 1005.7 hPa | 0 mm | - | 3 W/m² | - |
| 1777979756 | 15° C | 91% | 1005.5 hPa | 0 mm | - | 2 W/m² | - |
| 1777979452 | 15.56° C | 92% | 1005.7 hPa | 0 mm | - | 1 W/m² | - |
| 1777979149 | 15.56° C | 93% | 1005.8 hPa | 0 mm | - | 0 W/m² | - |
| 1777978238 | 15.56° C | 94% | 1005.9 hPa | 0 mm | - | 0 W/m² | - |
| 1777977329 | 16.11° C | 94% | 1006.2 hPa | 0 mm | - | 0 W/m² | - |
| 1777977027 | 16.11° C | 93% | 1006.1 hPa | 0 mm | - | 0 W/m² | - |
| 1777976723 | 16.11° C | 93% | 1005.8 hPa | 0 mm | - | 0 W/m² | - |
| 1777976120 | 16.11° C | 93% | 1005.9 hPa | 0 mm | - | 0 W/m² | - |
| 1777975815 | 16.11° C | 93% | 1006 hPa | 0 mm | - | 0 W/m² | - |
| 1777975513 | 16.11° C | 93% | 1006.1 hPa | 0 mm | - | 0 W/m² | - |
| 1777975210 | 16.11° C | 93% | 1006.1 hPa | 0 mm | - | 0 W/m² | - |
| 1777974906 | 16.11° C | 93% | 1006.6 hPa | 0 mm | - | 0 W/m² | - |
| 1777974601 | 16.11° C | 92% | 1006.4 hPa | 1.78 mm | - | 0 W/m² | - |
| 1777973995 | 16.67° C | 91% | 1006 hPa | 0 mm | - | 0 W/m² | - |
* Rain latest hour (hover to see other rain measurements)
** Current wind speed in m/s (hover to see current wind gust speed)